Latest Conditions
At L.F.Wade Int. Airport
Recorded at 4:55 pm
Showers
Temp.: 
20°C/69°F
Humidity: 
84%
Wind: 
NE 11KT
or 13mph
UV Index: 
0
Island Observations
 
Observations
Wednesday, December 07, 2022

Observations are in local time and taken at least once an hour, or upon the start and end of specified events such as showers and thunderstorms.

Time Sky / Weather Wind Speed/Gusts Temp. R.H. Pressure
     knots (mph)  °C (°F)  %  mb / "Hg
 16:55 Mostly Cloudy Showers NE 11/0 (13/0) 20(69) 84 1019 / 30.09
 16:28 Mostly Cloudy Showers NNE 15/25 (17/29) 22(71) 79 1019 / 30.09
 16:24 Mostly Cloudy Showers NE 14/0 (16/0) 22(71) 76 1019 / 30.09
 15:55 Few Clouds Showers NNE 12/0 (14/0) 22(71) 74 1019 / 30.08
 15:12 Few Clouds Showers NE 13/0 (15/0) 22(72) 78 1019 / 30.08
 14:55 Partly Cloudy Showers NNE 13/0 (15/0) 22(71) 82 1019 / 30.08
 14:33 Partly Cloudy Showers NE 15/0 (17/0) 21(70) 82 1019 / 30.08
 14:12 Mostly Cloudy Showers NE 15/0 (17/0) 22(72) 74 1019 / 30.08
 13:55 Few Clouds Showers NNE 16/0 (18/0) 22(71) 78 1019 / 30.08
 13:45 Mostly Cloudy Showers NNE 13/24 (15/28) 22(72) 77 1019 / 30.09
 13:43 Mostly Cloudy Showers NE 16/0 (18/0) 22(72) 77 1019 / 30.09
 12:55 Few Clouds  NNE 17/0 (20/0) 22(72) 71 1019 / 30.09
 11:59 Mostly Cloudy Showers NNE 15/26 (17/30) 22(71) 73 1020 / 30.11
 11:55 Mostly Cloudy Showers NE 13/0 (15/0) 21(70) 79 1020 / 30.12
 11:38 Mostly Cloudy Showers NE 16/0 (18/0) 22(72) 71 1020 / 30.12
 10:55 Few Clouds  NNE 15/0 (17/0) 22(72) 67 1021 / 30.14
 09:55 Partly Cloudy  NNE 15/0 (17/0) 22(72) 63 1021 / 30.15
 08:55 Partly Cloudy  NNE 14/0 (16/0) 22(71) 66 1020 / 30.13
 07:55 Partly Cloudy  NNE 13/0 (15/0) 21(70) 74 1020 / 30.12
 06:55 Mostly Cloudy  NE 14/0 (16/0) 21(69) 71 1020 / 30.11
 05:55 Partly Cloudy  NNE 13/0 (15/0) 21(69) 76 1019 / 30.09
 04:55 Partly Cloudy Showers NE 15/0 (17/0) 20(69) 77 1019 / 30.09
 03:55 Partly Cloudy Showers NNE 11/0 (13/0) 21(69) 74 1019 / 30.09
 03:38 Partly Cloudy Showers NE 10/0 (12/0) 20(69) 74 1019 / 30.09
 03:19 Mostly Cloudy Showers NE 11/0 (13/0) 21(69) 74 1019 / 30.10
 02:55 Few Clouds Showers NE 9/0 (10/0) 20(68) 74 1019 / 30.10
 01:55 Few Clouds  NE 7/0 (8/0) 20(68) 75 1019 / 30.09
 00:55 Few Clouds  ENE 8/0 (9/0) 20(68) 76 1019 / 30.09
 23:55 Few Clouds  NE 6/0 (7/0) 19(67) 84 1019 / 30.09
 22:55 Few Clouds Showers NE 8/0 (9/0) 19(66) 83 1019 / 30.09
 22:11 Partly Cloudy Showers NNE 5/0 (6/0) 18(65) 91 1019 / 30.08
 21:55 Mostly Cloudy Showers NNE 13/0 (15/0) 18(65) 89 1019 / 30.09
 21:42 Mostly Cloudy Showers NNE 10/0 (12/0) 20(67) 84 1019 / 30.09
 20:55 Partly Cloudy Showers N 12/0 (14/0) 20(68) 80 1019 / 30.09
 19:55 Partly Cloudy Showers N 12/0 (14/0) 21(69) 78 1019 / 30.09
 19:32 Partly Cloudy Showers NNE 15/0 (17/0) 20(69) 75 1019 / 30.09
 19:20 Partly Cloudy Showers NNE 13/0 (15/0) 20(69) 77 1019 / 30.09
 18:55 Partly Cloudy Showers N 9/0 (10/0) 20(67) 75 1019 / 30.09
 18:34 Partly Cloudy Showers NNE 15/26 (17/30) 20(68) 75 1019 / 30.09
 17:55 Few Clouds Showers NNE 12/0 (14/0) 20(69) 71 1019 / 30.08
 17:18 Few Clouds Showers NNE 14/0 (16/0) 21(69) 71 1019 / 30.08
 17:04 Few Clouds Showers NNE 14/0 (16/0) 21(69) 72 1019 / 30.08
 16:55 Partly Cloudy Showers N 14/0 (16/0) 21(70) 71 1019 / 30.08
 15:55 Mostly Cloudy Showers NNE 18/0 (21/0) 20(68) 71 1019 / 30.08
 15:44 Mostly Cloudy Showers NNE 16/27 (18/31) 21(70) 69 1018 / 30.07
 15:13 Few Clouds Showers NNE 14/24 (16/28) 21(69) 74 1018 / 30.07
 15:03 Partly Cloudy Showers NNE 16/0 (18/0) 22(71) 68 1018 / 30.07
 14:55 Few Clouds Showers NNE 15/0 (17/0) 22(71) 65 1018 / 30.07
 13:55 Partly Cloudy Showers NNE 15/0 (17/0) 22(71) 69 1018 / 30.07
 12:55 Partly Cloudy Showers NNE 14/0 (16/0) 22(71) 67 1019 / 30.08
 11:55 Few Clouds  NNE 14/0 (16/0) 22(71) 67 1019 / 30.10
 10:55 Few Clouds Showers NNE 12/0 (14/0) 22(71) 63 1020 / 30.12
 09:55 Few Clouds Showers NE 11/0 (13/0) 21(70) 67 1020 / 30.13
 08:55 Few Clouds  NE 12/0 (14/0) 20(69) 72 1019 / 30.10
 07:55 Mostly Cloudy Showers NNE 14/0 (16/0) 20(68) 82 1019 / 30.08
 07:18 Few Clouds Showers NE 12/0 (14/0) 20(67) 82 1018 / 30.07
 06:55 Mostly Cloudy Showers N 13/0 (15/0) 18(65) 87 1018 / 30.07
 06:40 Mostly Cloudy Showers N 10/0 (12/0) 20(68) 80 1018 / 30.07
 05:55 Few Clouds Showers N 11/0 (13/0) 20(69) 71 1018 / 30.06
 04:55 Few Clouds Showers N 5/0 (6/0) 20(68) 77 1018 / 30.05
 03:55 Few Clouds Showers N 8/0 (9/0) 20(68) 71 1018 / 30.05
 02:55 Few Clouds  NNE 8/0 (9/0) 20(68) 70 1017 / 30.04
 01:55 Few Clouds  NNE 9/0 (10/0) 20(68) 67 1017 / 30.04
 00:55 Partly Cloudy  NNE 8/0 (9/0) 20(68) 71 1017 / 30.04
 23:55 Partly Cloudy  NNE 8/0 (9/0) 20(68) 73 1017 / 30.04
 22:55 Few Clouds Showers NE 9/0 (10/0) 20(68) 71 1017 / 30.04
 21:55 Few Clouds  NE 9/0 (10/0) 20(67) 75 1017 / 30.03
 20:55 Mostly Cloudy  NE 9/0 (10/0) 20(68) 74 1017 / 30.03
 20:16 Partly Cloudy Showers ENE 9/0 (10/0) 19(67) 79 1017 / 30.03
 20:01 Mostly Cloudy Showers NNE 11/0 (13/0) 19(67) 78 1017 / 30.02
 19:55 Mostly Cloudy Showers NNE 8/0 (9/0) 20(68) 78 1017 / 30.02
 18:55 Few Clouds  NE 12/0 (14/0) 20(68) 74 1016 / 30.01
 17:55 Partly Cloudy Showers NNE 12/0 (14/0) 20(68) 74 1016 / 29.99
 16:55 Mostly Cloudy Showers NNE 13/0 (15/0) 19(66) 83 1015 / 29.98
 16:42 Mostly Cloudy Showers NNE 12/0 (14/0) 19(66) 82 1015 / 29.98
 15:55 Partly Cloudy Showers N 11/0 (13/0) 21(69) 69 1015 / 29.97
 14:55 Partly Cloudy  N 8/0 (9/0) 21(70) 71 1015 / 29.96
 13:55 Few Clouds  N 10/0 (12/0) 21(71) 69 1014 / 29.95
 12:55 Partly Cloudy Showers N 11/0 (13/0) 22(71) 74 1015 / 29.96
 11:55 Partly Cloudy Showers N 9/0 (10/0) 21(71) 73 1015 / 29.98
 10:55 Partly Cloudy Showers NW 8/0 (9/0) 22(71) 70 1016 / 29.99
 09:55 Partly Cloudy Showers NW 6/0 (7/0) 22(71) 72 1016 / 30.00
 08:55 Partly Cloudy  NW 4/0 (5/0) 21(69) 75 1015 / 29.98
 07:55 Mostly Cloudy  NNW 3/0 (3/0) 18(65) 92 1015 / 29.97
 06:55 Mostly Cloudy  NNW 2/0 (2/0) 19(65) 89 1014 / 29.95
 05:55 Mostly Cloudy  Calm 18(65) 86 1014 / 29.94
 04:55 Mostly Cloudy  NW 3/0 (3/0) 20(67) 80 1014 / 29.95
 03:55 Mostly Cloudy  WNW 2/0 (2/0) 18(64) 94 1014 / 29.95
 02:55 Mostly Cloudy  NNW 2/0 (2/0) 18(64) 92 1014 / 29.94
 01:55 Mostly Cloudy  VRB 1/0 (1/0) 18(64) 92 1014 / 29.95
 00:55 Mostly Cloudy  Calm 18(65) 89 1015 / 29.96
 23:55 Partly Cloudy  NNE 1/0 (1/0) 17(63) 92 1015 / 29.98
 22:55 Few Clouds  ENE 4/0 (5/0) 18(64) 83 1015 / 29.98
 21:55 Partly Cloudy  NNE 2/0 (2/0) 18(64) 86 1016 / 30.01
 20:55 Partly Cloudy  N 2/0 (2/0) 18(65) 82 1016 / 30.00
 19:55 Few Clouds  NNE 2/0 (2/0) 18(65) 83 1016 / 30.00
 18:55 Few Clouds  NNE 4/0 (5/0) 19(66) 77 1016 / 30.00
 17:55 Few Clouds  NNE 3/0 (3/0) 19(67) 75 1016 / 30.00
 16:55 Few Clouds  NNE 3/0 (3/0) 20(68) 73 1016 / 30.00
 15:55 Mostly Cloudy  NNE 4/0 (5/0) 21(70) 68 1016 / 30.01
Island AWOS